Time;durP1;ratioP1;P1;durP2;ratioP2;P2;SDS_P1;SDS_P2;PMS_P1;PMS_P2;Temp;Humidity;BMP_temperature;BMP_pressure;BME280_temperature;BME280_humidity;BME280_pressure;Samples;Min_cycle;Max_cycle;Signal;HPM_P1;HPM_P2
2021/09/12 00:02:15;;;;;;;24.52;17.48;;;;;;;17.93;100.00;101436.41;4988456;28;20046;-69
2021/09/12 00:04:43;;;;;;;23.80;16.42;;;;;;;18.00;100.00;101441.41;4976652;28;20042;-70
2021/09/12 00:07:09;;;;;;;23.77;16.38;;;;;;;18.01;100.00;101448.38;4980355;28;20046;-70
2021/09/12 00:09:35;;;;;;;25.98;17.73;;;;;;;18.01;99.98;101443.13;4983005;28;20057;-69
2021/09/12 00:12:02;;;;;;;25.10;17.40;;;;;;;17.97;99.99;101436.25;4981321;28;20050;-70
2021/09/12 00:14:29;;;;;;;25.08;16.10;;;;;;;17.94;100.00;101441.59;4984397;28;20053;-69
2021/09/12 00:16:55;;;;;;;23.40;17.45;;;;;;;17.96;100.00;101431.91;4980086;28;20057;-70
2021/09/12 00:19:22;;;;;;;25.80;17.60;;;;;;;17.98;100.00;101431.81;4982787;28;20109;-69
2021/09/12 00:21:50;;;;;;;28.20;17.85;;;;;;;18.00;99.90;101427.38;4980436;28;20043;-70
2021/09/12 00:24:16;;;;;;;22.00;16.77;;;;;;;18.01;99.76;101429.97;4984740;28;20500;-69
2021/09/12 00:26:43;;;;;;;26.52;17.70;;;;;;;18.00;99.81;101428.25;4982720;28;20496;-69
2021/09/12 00:29:09;;;;;;;22.30;16.23;;;;;;;17.97;100.00;101424.84;4980391;28;20520;-70
2021/09/12 00:31:36;;;;;;;20.95;16.00;;;;;;;17.97;100.00;101427.47;4978293;28;20049;-70
2021/09/12 00:34:02;;;;;;;25.02;18.45;;;;;;;17.89;100.00;101417.25;4979569;28;20047;-69
2021/09/12 00:36:28;;;;;;;28.13;18.65;;;;;;;17.85;100.00;101418.25;4981637;28;20057;-69
2021/09/12 00:38:56;;;;;;;25.38;18.45;;;;;;;17.79;100.00;101415.88;4981269;28;20054;-70
2021/09/12 00:41:23;;;;;;;26.95;18.05;;;;;;;17.79;100.00;101415.88;4977824;28;20058;-68
2021/09/12 00:43:49;;;;;;;21.25;16.20;;;;;;;17.88;100.00;101418.16;4984198;28;20050;-70
2021/09/12 00:46:15;;;;;;;30.13;18.33;;;;;;;17.84;100.00;101421.81;4981561;28;20427;-69
2021/09/12 00:48:42;;;;;;;22.10;16.80;;;;;;;17.84;100.00;101416.53;4983968;28;20381;-69
2021/09/12 00:51:08;;;;;;;28.05;18.00;;;;;;;17.85;100.00;101413.88;4976739;28;20420;-70
2021/09/12 00:53:37;;;;;;;26.55;18.15;;;;;;;17.90;100.00;101421.59;4982503;28;20046;-70
2021/09/12 00:56:05;;;;;;;26.08;17.67;;;;;;;17.86;100.00;101407.69;4979009;28;20464;-69
2021/09/12 00:58:33;;;;;;;26.05;16.70;;;;;;;17.88;100.00;101418.16;4980158;28;20405;-69
2021/09/12 01:01:09;;;;;;;29.10;18.02;;;;;;;17.91;100.00;101415.41;4985843;28;20126;-70
2021/09/12 01:03:36;;;;;;;27.23;16.60;;;;;;;17.91;100.00;101412.78;4980481;28;20038;-70
2021/09/12 01:06:02;;;;;;;26.50;16.67;;;;;;;17.86;99.98;101407.69;4978913;28;20050;-70
2021/09/12 01:08:29;;;;;;;26.42;16.75;;;;;;;17.86;99.38;101410.31;4984041;28;20049;-71
2021/09/12 01:10:55;;;;;;;23.67;16.83;;;;;;;17.80;99.91;101409.72;4975893;28;20072;-71
2021/09/12 01:13:23;;;;;;;31.25;17.60;;;;;;;17.79;100.00;101410.63;4977051;28;20050;-69
2021/09/12 01:15:50;;;;;;;27.80;17.65;;;;;;;17.76;100.00;101403.72;4984325;28;20058;-70
2021/09/12 01:18:16;;;;;;;30.15;17.08;;;;;;;17.78;100.00;101401.00;4983878;28;20061;-70
2021/09/12 01:20:44;;;;;;;24.17;16.25;;;;;;;17.81;99.94;101406.16;4981429;28;20050;-70
2021/09/12 01:23:11;;;;;;;23.48;16.13;;;;;;;17.81;100.00;101400.91;4986497;28;20053;-69
2021/09/12 01:25:39;;;;;;;28.42;19.15;;;;;;;17.76;100.00;101403.72;4981545;28;20459;-70
2021/09/12 01:28:06;;;;;;;35.13;17.80;;;;;;;17.72;100.00;101405.56;4982258;28;20057;-69
2021/09/12 01:30:33;;;;;;;27.52;16.58;;;;;;;17.74;100.00;101404.66;4990616;28;20054;-70
2021/09/12 01:32:59;;;;;;;28.33;17.83;;;;;;;17.75;100.00;101398.47;4986793;28;20069;-70
2021/09/12 01:35:26;;;;;;;30.05;17.02;;;;;;;17.72;100.00;101399.47;4983951;28;20054;-69
2021/09/12 01:37:52;;;;;;;26.30;17.02;;;;;;;17.69;100.00;101405.72;4982120;28;20054;-69
2021/09/12 01:40:19;;;;;;;27.85;17.30;;;;;;;17.67;100.00;101406.66;4985652;28;20054;-70
2021/09/12 01:42:47;;;;;;;31.30;17.95;;;;;;;17.64;100.00;101404.16;4984547;28;20054;-70
2021/09/12 01:45:13;;;;;;;33.30;18.85;;;;;;;17.62;99.84;101400.75;4986552;28;20049;-69
2021/09/12 01:47:40;;;;;;;25.65;17.30;;;;;;;17.58;100.00;101410.53;4984355;28;20042;-70
2021/09/12 01:50:08;;;;;;;25.23;17.65;;;;;;;17.55;100.00;101406.25;4987284;28;20222;-69
2021/09/12 01:52:34;;;;;;;24.73;17.73;;;;;;;17.57;100.00;101403.53;4991426;28;20057;-70
2021/09/12 01:55:01;;;;;;;26.90;18.73;;;;;;;17.59;100.00;101404.34;4985032;28;20054;-70
2021/09/12 01:57:28;;;;;;;31.90;18.95;;;;;;;17.59;99.41;101401.72;4979148;28;20116;-69
2021/09/12 01:59:56;;;;;;;31.35;19.35;;;;;;;17.56;99.98;101401.81;4985884;28;20117;-69
2021/09/12 02:02:22;;;;;;;28.20;18.33;;;;;;;17.54;99.80;101403.66;4984229;28;20055;-68
2021/09/12 02:04:48;;;;;;;29.55;18.42;;;;;;;17.51;99.72;101399.38;4982482;28;20057;-69
2021/09/12 02:07:15;;;;;;;32.30;19.10;;;;;;;17.46;99.83;101406.59;4982649;28;20542;-69
2021/09/12 02:09:41;;;;;;;27.50;19.00;;;;;;;17.46;100.00;101411.84;4983744;28;20054;-72
2021/09/12 02:12:08;;;;;;;31.42;19.00;;;;;;;17.43;100.00;101397.94;4981501;28;20050;-70
2021/09/12 02:14:34;;;;;;;27.45;19.35;;;;;;;17.42;100.00;101398.88;4986870;28;20053;-70
2021/09/12 02:17:02;;;;;;;33.35;20.80;;;;;;;17.38;100.00;101404.25;4989119;28;20112;-70
2021/09/12 02:19:29;;;;;;;31.48;19.75;;;;;;;17.34;100.00;101396.53;4987159;28;20054;-69
2021/09/12 02:21:55;;;;;;;30.20;18.95;;;;;;;17.34;100.00;101396.53;4985882;28;20080;-70
2021/09/12 02:24:22;;;;;;;31.70;20.23;;;;;;;17.32;100.00;101395.72;4980907;28;20038;-70
2021/09/12 02:26:48;;;;;;;30.73;20.58;;;;;;;17.33;100.00;101395.66;4984206;28;20053;-69
2021/09/12 02:29:15;;;;;;;28.92;20.00;;;;;;;17.29;100.00;101398.44;4991162;28;20420;-70
2021/09/12 02:31:41;;;;;;;35.45;21.00;;;;;;;17.26;99.99;101399.44;4987573;28;20042;-69
2021/09/12 02:34:09;;;;;;;34.00;21.63;;;;;;;17.22;100.00;101398.69;4984201;28;20050;-69
2021/09/12 02:36:35;;;;;;;32.97;21.33;;;;;;;17.22;100.00;101403.06;4986616;28;20054;-69
2021/09/12 02:39:02;;;;;;;34.80;21.38;;;;;;;17.21;100.00;101404.00;4981013;28;20051;-69
2021/09/12 02:41:28;;;;;;;33.03;21.33;;;;;;;17.18;100.00;101396.22;4990283;28;20467;-69
2021/09/12 02:43:55;;;;;;;29.20;20.50;;;;;;;17.19;99.82;101403.19;4987160;28;20424;-69
2021/09/12 02:46:21;;;;;;;32.92;19.45;;;;;;;17.18;99.51;101406.75;4985884;28;20047;-70
2021/09/12 02:48:48;;;;;;;27.15;18.35;;;;;;;17.12;100.00;101407.81;4985327;28;20054;-69
2021/09/12 02:51:16;;;;;;;30.45;19.13;;;;;;;17.09;100.00;101403.53;4985218;28;20050;-70
2021/09/12 02:53:42;;;;;;;33.15;18.55;;;;;;;17.06;99.48;101403.63;4983731;28;20049;-70
2021/09/12 02:56:09;;;;;;;31.42;18.67;;;;;;;17.02;99.60;101409.91;4979045;28;20499;-69
2021/09/12 02:58:35;;;;;;;26.13;17.90;;;;;;;17.05;99.32;101404.53;4985941;28;20456;-69
2021/09/12 03:01:01;;;;;;;33.20;17.40;;;;;;;17.00;99.44;101409.13;4986580;28;20057;-69
2021/09/12 03:03:28;;;;;;;27.10;17.02;;;;;;;17.04;98.67;101405.47;4986992;28;20039;-69
2021/09/12 03:05:55;;;;;;;28.33;17.65;;;;;;;17.07;98.53;101415.00;4985117;28;20059;-70
2021/09/12 03:08:23;;;;;;;28.70;16.42;;;;;;;17.02;98.01;101412.53;4981894;28;20053;-70
2021/09/12 03:10:49;;;;;;;26.75;16.00;;;;;;;16.99;97.97;101415.28;4981268;28;20046;-69
2021/09/12 03:13:16;;;;;;;23.58;16.63;;;;;;;16.99;97.00;101411.78;4983379;28;20042;-69
2021/09/12 03:15:42;;;;;;;20.83;14.07;;;;;;;16.93;96.99;101410.19;4982257;28;20053;-69
2021/09/12 03:18:09;;;;;;;25.92;14.43;;;;;;;16.90;97.15;101412.97;4983723;28;20069;-69
2021/09/12 03:20:35;;;;;;;28.25;14.07;;;;;;;16.86;97.36;101412.22;4983588;28;20046;-70
2021/09/12 03:23:03;;;;;;;22.38;14.27;;;;;;;16.83;97.28;101411.44;4981038;28;20093;-70
2021/09/12 03:25:31;;;;;;;21.83;14.20;;;;;;;16.79;97.60;101413.31;4981972;28;20070;-69
2021/09/12 03:27:57;;;;;;;24.98;14.25;;;;;;;16.79;97.61;101410.69;4978676;28;20069;-70
2021/09/12 03:30:24;;;;;;;26.38;13.60;;;;;;;16.80;97.41;101409.78;4988540;28;20046;-70
2021/09/12 03:32:51;;;;;;;21.23;14.10;;;;;;;16.78;97.62;101409.84;4990215;28;20057;-69
2021/09/12 03:35:17;;;;;;;24.95;13.82;;;;;;;16.81;97.22;101405.41;4984669;28;20058;-69
2021/09/12 03:37:44;;;;;;;22.27;14.32;;;;;;;16.81;97.08;101405.41;4985998;28;20050;-69
2021/09/12 03:40:10;;;;;;;23.48;14.70;;;;;;;16.78;96.96;101401.09;4978737;28;20051;-69
2021/09/12 03:42:38;;;;;;;23.73;14.32;;;;;;;16.68;97.22;101392.69;4984359;28;20546;-70
2021/09/12 03:45:06;;;;;;;22.10;13.52;;;;;;;16.66;96.82;101393.66;4984899;28;20042;-70
2021/09/12 03:47:32;;;;;;;24.95;13.43;;;;;;;16.65;97.19;101394.56;4986609;28;20046;-70
2021/09/12 03:49:59;;;;;;;19.83;12.85;;;;;;;16.63;96.31;101397.22;4986799;28;20046;-69
2021/09/12 03:52:25;;;;;;;16.63;11.48;;;;;;;16.60;95.92;101394.72;4981398;28;20105;-70
2021/09/12 03:54:52;;;;;;;18.38;11.45;;;;;;;16.55;95.90;101399.25;4986238;28;20054;-69
2021/09/12 03:57:20;;;;;;;21.42;12.07;;;;;;;16.44;95.66;101392.59;4981071;28;20049;-69
2021/09/12 03:59:47;;;;;;;17.52;11.43;;;;;;;16.41;95.06;101402.34;4985316;28;20132;-70
2021/09/12 04:02:14;;;;;;;18.80;11.45;;;;;;;16.38;95.41;101407.69;4976615;28;20077;-70
2021/09/12 04:04:40;;;;;;;17.73;11.48;;;;;;;16.32;95.89;101408.72;4979264;28;20042;-70
2021/09/12 04:07:07;;;;;;;24.38;12.88;;;;;;;16.26;95.81;101416.81;4982473;28;21507;-70
2021/09/12 04:09:33;;;;;;;22.58;11.68;;;;;;;16.25;95.19;101418.59;4985162;28;20046;-69
2021/09/12 04:11:59;;;;;;;16.58;10.93;;;;;;;16.16;95.62;101417.13;4982870;28;20073;-70
2021/09/12 04:14:26;;;;;;;22.35;11.75;;;;;;;16.16;95.59;101413.66;4986455;28;20057;-69
2021/09/12 04:16:54;;;;;;;18.92;11.07;;;;;;;16.12;95.39;101415.47;4984338;28;20490;-68
2021/09/12 04:19:20;;;;;;;20.25;10.07;;;;;;;16.12;93.93;101412.00;4983880;28;20046;-69
2021/09/12 04:21:47;;;;;;;16.40;10.27;;;;;;;16.04;94.62;101406.16;4985312;28;20046;-69
2021/09/12 04:24:13;;;;;;;17.25;10.75;;;;;;;16.02;94.93;101414.06;4984108;28;20046;-70
2021/09/12 04:26:39;;;;;;;17.38;10.30;;;;;;;16.01;95.33;101417.63;4980248;28;20100;-68
2021/09/12 04:29:06;;;;;;;23.42;11.52;;;;;;;15.97;95.01;101414.19;4982531;28;20061;-69
2021/09/12 04:31:32;;;;;;;24.45;11.25;;;;;;;15.98;95.20;101418.53;4985215;28;20074;-70
2021/09/12 04:34:00;;;;;;;20.38;10.73;;;;;;;15.97;94.86;101419.44;4985391;28;20101;-69
2021/09/12 04:36:27;;;;;;;18.17;10.00;;;;;;;16.00;94.70;101421.13;4984217;28;20062;-69
2021/09/12 04:38:53;;;;;;;15.07;8.65;;;;;;;15.96;93.67;101419.50;4985850;28;20538;-69
2021/09/12 04:41:20;;;;;;;14.98;9.25;;;;;;;15.93;93.55;101423.09;4976009;28;20501;-68
2021/09/12 04:43:46;;;;;;;20.77;9.30;;;;;;;15.89;93.14;101423.22;4987410;28;20054;-70
2021/09/12 04:46:13;;;;;;;18.00;9.25;;;;;;;15.85;93.03;101423.31;4982230;28;20050;-70
2021/09/12 04:48:39;;;;;;;15.15;8.95;;;;;;;15.83;93.13;101417.22;4980221;28;20062;-70
2021/09/12 04:51:07;;;;;;;16.00;8.60;;;;;;;15.81;92.69;101419.06;4985629;28;20054;-69
2021/09/12 04:53:33;;;;;;;20.35;8.95;;;;;;;15.74;93.17;101419.28;4979156;28;20050;-70
2021/09/12 04:56:00;;;;;;;15.98;8.15;;;;;;;15.74;91.79;101425.38;4976702;28;20080;-69
2021/09/12 04:58:26;;;;;;;15.77;9.07;;;;;;;15.70;92.13;101431.63;4980181;28;20059;-69
2021/09/12 05:00:53;;;;;;;15.50;8.38;;;;;;;15.69;92.13;101429.91;4982903;28;20051;-69
2021/09/12 05:03:19;;;;;;;16.35;7.95;;;;;;;15.63;92.42;101433.56;4983470;28;20500;-69
2021/09/12 05:05:46;;;;;;;14.40;7.85;;;;;;;15.64;92.15;101429.16;4988138;28;20054;-69
2021/09/12 05:08:13;;;;;;;13.02;7.18;;;;;;;15.65;92.03;101433.50;4981237;28;20523;-70
2021/09/12 05:10:40;;;;;;;14.75;7.85;;;;;;;15.65;91.89;101433.50;4987451;28;20474;-70
2021/09/12 05:13:06;;;;;;;16.88;7.55;;;;;;;15.60;91.87;101441.50;4982298;28;20054;-70
2021/09/12 05:15:33;;;;;;;18.48;7.55;;;;;;;15.59;91.51;101442.41;4982437;28;20057;-70
2021/09/12 05:17:59;;;;;;;12.75;7.57;;;;;;;15.58;91.35;101442.47;4986471;28;20443;-70
2021/09/12 05:20:26;;;;;;;15.65;8.77;;;;;;;15.54;91.81;101439.06;4982792;28;20097;-69
2021/09/12 05:22:52;;;;;;;16.55;7.50;;;;;;;15.54;91.61;101444.31;4986873;28;20046;-69
2021/09/12 05:25:20;;;;;;;16.58;7.10;;;;;;;15.52;91.53;101449.59;4985468;28;20591;-70
2021/09/12 05:27:46;;;;;;;17.65;7.15;;;;;;;15.50;90.84;101448.78;4984674;28;20058;-70
2021/09/12 05:30:13;;;;;;;15.80;7.63;;;;;;;15.45;91.39;101453.28;4988678;28;20062;-70
2021/09/12 05:32:45;;;;;;;15.90;7.38;;;;;;;15.48;91.41;101453.22;4984146;28;20046;-70
2021/09/12 05:35:12;;;;;;;17.08;7.85;;;;;;;15.53;90.97;101451.31;4985168;28;20859;-69
2021/09/12 05:37:38;;;;;;;13.38;6.90;;;;;;;15.53;91.16;101453.94;4987358;28;20050;-69
2021/09/12 05:40:06;;;;;;;13.70;6.60;;;;;;;15.58;91.08;101460.81;4984740;28;20059;-69
2021/09/12 05:42:33;;;;;;;14.70;7.47;;;;;;;15.58;91.04;101466.91;4985191;28;20058;-70
2021/09/12 05:45:00;;;;;;;16.75;7.00;;;;;;;15.57;90.61;101467.84;4988042;28;20058;-69
2021/09/12 05:47:26;;;;;;;12.85;6.47;;;;;;;15.59;90.87;101467.78;4989082;28;20058;-69
2021/09/12 05:49:53;;;;;;;14.05;7.25;;;;;;;15.51;91.30;101466.25;4985013;28;20043;-70
2021/09/12 05:52:19;;;;;;;12.85;8.15;;;;;;;15.57;90.49;101470.47;4989260;28;20073;-70
2021/09/12 05:54:46;;;;;;;12.30;6.03;;;;;;;15.55;90.15;101470.50;4987436;28;20948;-69
2021/09/12 05:57:12;;;;;;;12.88;6.43;;;;;;;15.62;89.42;101472.97;4986998;28;20050;-69
2021/09/12 05:59:40;;;;;;;14.50;5.88;;;;;;;15.59;90.15;101473.88;4988355;28;20053;-70
2021/09/12 06:02:06;;;;;;;13.15;6.03;;;;;;;15.63;89.97;101472.03;4982359;28;20062;-70
2021/09/12 06:04:33;;;;;;;15.10;6.07;;;;;;;15.66;89.60;101477.19;4989374;28;20043;-69
2021/09/12 06:06:59;;;;;;;15.13;5.60;;;;;;;15.70;89.49;101476.22;4985266;28;20610;-69
2021/09/12 06:09:26;;;;;;;12.20;5.90;;;;;;;15.74;89.85;101480.44;4983507;28;20141;-69
2021/09/12 06:11:53;;;;;;;12.98;5.68;;;;;;;15.79;89.27;101478.56;4987082;28;20124;-70
2021/09/12 06:14:19;;;;;;;13.98;6.22;;;;;;;15.82;88.99;101481.06;4986672;28;20416;-70
2021/09/12 06:16:47;;;;;;;13.38;5.88;;;;;;;15.84;89.33;101478.47;4990957;28;20061;-70
2021/09/12 06:19:14;;;;;;;15.48;5.28;;;;;;;15.89;89.38;101488.81;4986939;28;20053;-69
2021/09/12 06:21:40;;;;;;;12.60;4.82;;;;;;;15.84;89.23;101481.94;4980106;28;20066;-69
2021/09/12 06:24:07;;;;;;;20.08;6.15;;;;;;;15.89;88.24;101481.78;4981948;28;20511;-69
2021/09/12 06:26:33;;;;;;;14.18;5.57;;;;;;;15.89;88.79;101479.16;4976628;28;20526;-70
2021/09/12 06:29:00;;;;;;;12.50;5.60;;;;;;;15.92;88.60;101483.50;4981502;28;20061;-69
2021/09/12 06:31:27;;;;;;;12.60;5.63;;;;;;;15.94;88.42;101485.16;4982599;28;20054;-70
2021/09/12 06:33:55;;;;;;;16.73;5.65;;;;;;;15.94;88.45;101479.03;4980445;28;20051;-70
2021/09/12 06:36:21;;;;;;;12.73;5.53;;;;;;;15.97;88.39;101479.78;4983251;28;20050;-70
2021/09/12 06:38:48;;;;;;;15.00;6.63;;;;;;;16.03;87.13;101489.25;4981244;28;20050;-69
2021/09/12 06:41:15;;;;;;;12.68;4.90;;;;;;;16.06;87.63;101485.69;4982993;28;20046;-69
2021/09/12 06:43:41;;;;;;;8.40;5.03;;;;;;;16.16;87.78;101481.88;4980829;28;20509;-68
2021/09/12 06:46:07;;;;;;;10.10;5.47;;;;;;;16.22;87.71;101484.31;4983806;28;20057;-69
2021/09/12 06:48:34;;;;;;;14.07;4.80;;;;;;;16.32;87.06;101484.88;4986709;28;20062;-70
2021/09/12 06:51:02;;;;;;;12.68;5.57;;;;;;;16.40;87.29;101482.88;4985427;28;20057;-69
2021/09/12 06:53:28;;;;;;;9.15;4.78;;;;;;;16.50;85.44;101480.81;4979138;28;20058;-68
2021/09/12 06:55:55;;;;;;;10.43;4.78;;;;;;;16.51;85.99;101484.31;4984130;28;20130;-69
2021/09/12 06:58:21;;;;;;;14.20;4.80;;;;;;;16.59;85.62;101483.13;4978283;28;20053;-69
2021/09/12 07:00:48;;;;;;;13.23;5.55;;;;;;;16.55;84.90;101483.28;4986338;28;20054;-70
2021/09/12 07:03:14;;;;;;;11.10;5.22;;;;;;;16.59;85.28;101482.28;4983338;28;20057;-69
2021/09/12 07:05:40;;;;;;;16.23;4.45;;;;;;;16.59;85.53;101485.75;4979769;28;20046;-69
2021/09/12 07:08:08;;;;;;;15.23;4.43;;;;;;;16.70;84.55;101485.44;4981021;28;20058;-70
2021/09/12 07:10:35;;;;;;;10.98;4.50;;;;;;;16.74;84.52;101492.28;4979962;28;20054;-69
2021/09/12 07:13:02;;;;;;;12.15;5.10;;;;;;;16.78;84.68;101488.66;4978730;28;20113;-69
2021/09/12 07:15:28;;;;;;;14.43;4.15;;;;;;;16.76;84.30;101484.38;4984067;28;20061;-70
2021/09/12 07:17:54;;;;;;;13.52;5.22;;;;;;;16.78;84.50;101483.41;4984548;28;20055;-70
2021/09/12 07:20:21;;;;;;;9.48;4.43;;;;;;;16.85;84.64;101480.56;4981907;28;20069;-70
2021/09/12 07:22:47;;;;;;;10.82;4.32;;;;;;;16.94;82.87;101482.91;4981133;28;20504;-70
2021/09/12 07:25:16;;;;;;;11.98;4.20;;;;;;;16.90;83.03;101487.38;4979365;28;20508;-70
2021/09/12 07:27:42;;;;;;;12.60;4.57;;;;;;;16.96;83.31;101488.13;4979284;28;20047;-71
2021/09/12 07:30:10;;;;;;;11.23;4.53;;;;;;;16.94;83.07;101482.91;4978175;28;20050;-70
2021/09/12 07:32:37;;;;;;;13.70;4.20;;;;;;;16.92;82.76;101488.19;4984683;28;20065;-70
2021/09/12 07:35:04;;;;;;;11.45;4.40;;;;;;;16.90;82.44;101486.53;4978069;28;20050;-70
2021/09/12 07:37:30;;;;;;;9.80;4.28;;;;;;;16.94;81.71;101482.91;4984836;28;20496;-69
2021/09/12 07:39:57;;;;;;;8.50;3.70;;;;;;;17.09;83.55;101482.41;4983313;28;20467;-69
2021/09/12 07:42:24;;;;;;;12.45;3.70;;;;;;;17.49;82.41;101481.88;4984331;28;20069;-70
2021/09/12 07:44:51;;;;;;;6.10;2.50;;;;;;;17.81;81.47;101480.69;4978156;28;20121;-69
2021/09/12 07:47:17;;;;;;;10.90;3.63;;;;;;;18.14;77.43;101479.47;4981285;28;20570;-69
2021/09/12 07:49:44;;;;;;;9.20;3.35;;;;;;;18.13;77.38;101483.91;4986664;28;20046;-69
2021/09/12 07:52:10;;;;;;;11.82;3.42;;;;;;;18.16;76.88;101478.53;4985606;28;20050;-69
2021/09/12 07:54:37;;;;;;;9.98;3.40;;;;;;;18.20;77.39;101487.16;4983508;28;20512;-69
2021/09/12 07:57:03;;;;;;;9.32;4.00;;;;;;;18.29;77.49;101489.41;4977204;28;20101;-69
2021/09/12 07:59:31;;;;;;;11.32;3.78;;;;;;;18.54;77.54;101496.31;4986046;28;20054;-69
2021/09/12 08:01:58;;;;;;;12.77;4.07;;;;;;;18.78;76.43;101481.28;4984054;28;20054;-69
2021/09/12 08:04:24;;;;;;;9.57;3.53;;;;;;;18.81;76.55;101490.84;4981546;28;20054;-70
2021/09/12 08:06:51;;;;;;;8.88;3.25;;;;;;;18.91;76.48;101488.66;4979981;28;20055;-69
2021/09/12 08:09:17;;;;;;;11.13;3.58;;;;;;;18.85;76.63;101492.41;4980846;28;20105;-67
2021/09/12 08:11:44;;;;;;;8.98;2.80;;;;;;;18.90;76.82;101485.19;4978858;28;20051;-69
2021/09/12 08:14:10;;;;;;;8.48;2.78;;;;;;;19.00;75.57;101493.59;4979043;28;20051;-69
2021/09/12 08:16:38;;;;;;;9.88;2.45;;;;;;;19.14;74.86;101490.34;4981990;28;20405;-69
2021/09/12 08:19:04;;;;;;;7.70;1.83;;;;;;;19.17;72.32;101498.13;4983529;28;20050;-69
2021/09/12 08:21:31;;;;;;;6.55;1.92;;;;;;;19.25;72.17;101496.03;4985788;28;20500;-67
2021/09/12 08:23:57;;;;;;;7.10;2.00;;;;;;;19.25;70.17;101496.03;4986355;28;20050;-69
2021/09/12 08:26:23;;;;;;;9.27;2.35;;;;;;;19.25;70.21;101497.81;4980508;28;20050;-68
2021/09/12 08:28:50;;;;;;;6.93;2.63;;;;;;;19.34;70.13;101499.16;4981511;28;20056;-69
2021/09/12 08:31:17;;;;;;;8.73;2.17;;;;;;;19.32;70.84;101501.88;4986718;28;20515;-69
2021/09/12 08:33:44;;;;;;;6.07;1.58;;;;;;;19.44;70.53;101502.28;4975244;28;20772;-69
2021/09/12 08:36:11;;;;;;;6.85;2.03;;;;;;;19.46;69.44;101498.63;4981938;28;20046;-70
2021/09/12 08:38:37;;;;;;;12.18;2.08;;;;;;;19.40;69.22;101501.56;4983422;28;20137;-70
2021/09/12 08:41:05;;;;;;;10.23;2.42;;;;;;;19.31;69.30;101504.59;4978200;28;20054;-68
2021/09/12 08:43:33;;;;;;;4.57;1.92;;;;;;;19.37;69.30;101506.97;4982251;28;20057;-69
2021/09/12 08:46:00;;;;;;;8.82;2.10;;;;;;;19.54;69.89;101509.69;4984957;28;20062;-70
2021/09/12 08:48:27;;;;;;;5.45;1.88;;;;;;;19.69;67.76;101502.88;4982889;28;20406;-69
2021/09/12 08:50:55;;;;;;;6.25;1.90;;;;;;;19.82;67.97;101510.25;4980236;28;20393;-70
2021/09/12 08:53:22;;;;;;;8.00;1.83;;;;;;;20.04;68.58;101512.75;4983591;28;20055;-70
2021/09/12 08:55:48;;;;;;;8.23;2.30;;;;;;;20.19;67.54;101513.81;4979276;28;20142;-69
2021/09/12 08:58:15;;;;;;;6.72;1.63;;;;;;;20.24;68.09;101518.88;4989033;28;20042;-69
2021/09/12 09:00:44;;;;;;;7.15;2.15;;;;;;;20.30;66.04;101513.34;4984109;28;20054;-69
2021/09/12 09:03:11;;;;;;;5.63;1.80;;;;;;;20.29;65.57;101522.19;4981739;28;20212;-70
2021/09/12 09:05:40;;;;;;;7.32;1.70;;;;;;;20.25;65.39;101517.97;4985466;28;20054;-70
2021/09/12 09:08:10;;;;;;;7.47;1.48;;;;;;;20.27;65.60;101524.03;4984232;28;20157;-70
2021/09/12 09:10:38;;;;;;;9.18;2.88;;;;;;;19.96;64.31;101520.19;4977875;28;20058;-71
2021/09/12 09:13:05;;;;;;;6.78;1.63;;;;;;;19.78;65.34;101504.25;4979854;28;20505;-68
2021/09/12 09:15:32;;;;;;;9.15;1.90;;;;;;;19.53;67.10;101507.97;4979074;28;20196;-70
2021/09/12 09:18:06;;;;;;;6.05;2.33;;;;;;;19.68;66.07;101505.59;4981717;28;20054;-69
2021/09/12 09:20:34;;;;;;;8.02;2.20;;;;;;;19.61;66.52;101498.88;4979972;28;20046;-69
2021/09/12 09:23:05;;;;;;;9.15;2.08;;;;;;;19.79;66.98;101494.53;4981214;28;20062;-69
2021/09/12 09:25:33;;;;;;;6.85;2.67;;;;;;;19.89;65.57;101503.78;4981075;28;20093;-70
2021/09/12 09:28:06;;;;;;;6.43;2.33;;;;;;;19.84;63.82;101503.94;4979650;28;20057;-69
2021/09/12 09:30:35;;;;;;;8.07;2.40;;;;;;;19.88;66.20;101495.00;4980909;28;20500;-69
2021/09/12 09:33:16;;;;;;;6.22;2.20;;;;;;;20.02;64.69;101501.41;4980031;28;20068;-70
2021/09/12 09:35:58;;;;;;;6.95;2.30;;;;;;;19.99;64.54;101498.94;4983461;28;20043;-70
2021/09/12 09:38:26;;;;;;;5.68;1.55;;;;;;;20.04;63.26;101502.19;4981546;28;20528;-69
2021/09/12 09:41:03;;;;;;;6.88;2.05;;;;;;;19.99;63.23;101498.94;4975474;28;20054;-69
2021/09/12 09:43:54;;;;;;;6.45;1.70;;;;;;;19.98;64.47;101491.94;4981627;28;20135;-69
2021/09/12 09:46:29;;;;;;;5.47;1.73;;;;;;;20.03;62.80;101490.78;4979216;28;20101;-69
2021/09/12 09:48:56;;;;;;;6.35;1.60;;;;;;;20.08;61.93;101490.56;4977761;28;20065;-70
2021/09/12 09:51:23;;;;;;;5.43;1.60;;;;;;;20.14;62.70;101494.72;4990896;28;20047;-70
2021/09/12 09:53:50;;;;;;;6.75;1.90;;;;;;;20.15;63.20;101485.88;4982414;28;20054;-70
2021/09/12 09:56:18;;;;;;;7.80;1.83;;;;;;;20.22;63.75;101491.69;4986426;28;20054;-69
2021/09/12 09:58:44;;;;;;;7.10;2.97;;;;;;;20.33;64.17;101489.38;4981705;28;20058;-70
2021/09/12 10:01:11;;;;;;;9.20;2.30;;;;;;;20.46;63.25;101481.75;4983713;28;20046;-69
2021/09/12 10:03:38;;;;;;;7.03;2.05;;;;;;;20.59;60.73;101487.28;4990573;28;20654;-68
2021/09/12 10:06:04;;;;;;;5.20;1.95;;;;;;;20.53;60.38;101488.44;4980477;28;20070;-70
2021/09/12 10:08:31;;;;;;;7.80;2.67;;;;;;;20.63;61.41;101486.16;4983423;28;20420;-69
2021/09/12 10:10:58;;;;;;;4.75;1.75;;;;;;;20.71;60.54;101486.66;4984630;28;20539;-69
2021/09/12 10:13:27;;;;;;;6.38;1.98;;;;;;;20.90;60.41;101477.84;4985504;28;20420;-70
2021/09/12 10:15:57;;;;;;;5.65;1.73;;;;;;;21.22;58.35;101475.28;4983057;28;20050;-69
2021/09/12 10:18:24;;;;;;;5.90;1.77;;;;;;;21.43;58.25;101476.81;4987329;28;20463;-70
2021/09/12 10:20:51;;;;;;;6.22;2.42;;;;;;;21.70;55.30;101483.38;4985370;28;20130;-71
2021/09/12 10:23:18;;;;;;;6.63;1.85;;;;;;;21.61;56.91;101487.38;4984983;28;20065;-70
2021/09/12 10:26:02;;;;;;;8.73;1.55;;;;;;;21.52;57.18;101485.19;4978209;28;20104;-70
2021/09/12 10:28:31;;;;;;;5.00;1.70;;;;;;;21.43;56.76;101479.44;4981315;28;20063;-70
2021/09/12 10:30:59;;;;;;;4.43;1.80;;;;;;;21.34;56.94;101484.38;4980796;28;20108;-70
2021/09/12 10:33:27;;;;;;;7.75;1.70;;;;;;;21.17;57.38;101479.97;4983266;28;20050;-70
2021/09/12 10:35:56;;;;;;;4.65;1.55;;;;;;;20.97;58.08;101482.72;4976369;28;20069;-69
2021/09/12 10:38:29;;;;;;;7.57;2.22;;;;;;;20.92;57.75;101481.22;4979515;28;20058;-70
2021/09/12 10:41:16;;;;;;;5.93;1.60;;;;;;;20.96;58.30;101477.50;4977650;28;20046;-69
2021/09/12 10:43:53;;;;;;;6.03;1.75;;;;;;;21.00;58.49;101476.44;4980366;28;20046;-69
2021/09/12 10:46:29;;;;;;;7.97;2.08;;;;;;;20.90;58.72;101475.19;4985904;28;20085;-68
2021/09/12 10:49:12;;;;;;;7.43;2.08;;;;;;;21.04;56.73;101474.47;4979825;28;20483;-69
2021/09/12 10:51:44;;;;;;;8.02;2.38;;;;;;;20.94;58.58;101477.59;4980036;28;20145;-69
2021/09/12 10:54:11;;;;;;;6.50;2.00;;;;;;;20.99;58.34;101474.72;4971968;28;20077;-70
2021/09/12 10:56:39;;;;;;;4.88;1.52;;;;;;;21.08;58.89;101463.66;4972100;28;20054;-69
2021/09/12 10:59:10;;;;;;;6.28;1.40;;;;;;;21.31;57.10;101469.50;4978241;28;20070;-69
2021/09/12 11:01:40;;;;;;;7.18;1.75;;;;;;;21.34;57.07;101473.81;4976903;28;20469;-70
2021/09/12 11:04:07;;;;;;;6.55;1.60;;;;;;;21.44;57.55;101473.22;4972644;28;20117;-70
2021/09/12 11:06:36;;;;;;;10.00;2.75;;;;;;;21.55;54.79;101482.38;4975341;28;20046;-71
2021/09/12 11:09:04;;;;;;;9.80;1.60;;;;;;;21.56;55.48;101473.50;4978389;28;21255;-70
2021/09/12 11:11:31;;;;;;;6.43;1.70;;;;;;;21.51;55.05;101472.91;4975515;28;20057;-70
2021/09/12 11:13:59;;;;;;;7.45;1.98;;;;;;;21.38;56.57;101470.03;4975199;28;20050;-69
2021/09/12 11:16:27;;;;;;;7.53;1.83;;;;;;;21.35;55.81;101462.28;4979517;28;20105;-70